Time;durP1;ratioP1;P1;durP2;ratioP2;P2;SDS_P1;SDS_P2;PMS_P1;PMS_P2;Temp;Humidity;BMP_temperature;BMP_pressure;BME280_temperature;BME280_humidity;BME280_pressure;Samples;Min_cycle;Max_cycle;Signal;HPM_P1;HPM_P2
2022/06/09 00:01:33;;;;;;;5.97;5.13;;;;;;;16.24;93.06;100699.44;4995695;28;20205;-74
2022/06/09 00:04:09;;;;;;;6.17;5.60;;;;;;;16.14;93.99;100705.53;5012583;28;20600;-74
2022/06/09 00:06:58;;;;;;;7.47;5.90;;;;;;;16.18;94.16;100701.19;5029121;28;20202;-74
2022/06/09 00:09:30;;;;;;;7.27;5.60;;;;;;;16.19;93.89;100701.19;5030048;28;20202;-75
2022/06/09 00:11:56;;;;;;;8.50;5.87;;;;;;;16.19;93.78;100696.03;5029497;28;20198;-75
2022/06/09 00:14:22;;;;;;;5.83;5.33;;;;;;;16.18;94.09;100690.88;5012025;28;20183;-74
2022/06/09 00:16:47;;;;;;;9.17;5.77;;;;;;;16.21;94.17;100696.88;5011503;28;20297;-74
2022/06/09 00:19:13;;;;;;;6.40;5.57;;;;;;;16.22;93.89;100693.44;5012076;28;20570;-74
2022/06/09 00:21:39;;;;;;;6.07;5.30;;;;;;;16.23;93.70;100695.16;5011424;28;20202;-74
2022/06/09 00:24:06;;;;;;;7.03;5.60;;;;;;;16.24;93.62;100694.28;5029726;28;20178;-75
2022/06/09 00:26:31;;;;;;;6.27;5.70;;;;;;;16.24;93.82;100690.81;5011925;28;20217;-74
2022/06/09 00:28:57;;;;;;;6.53;5.20;;;;;;;16.23;94.18;100694.28;5011439;28;20214;-75
2022/06/09 00:31:24;;;;;;;6.23;5.60;;;;;;;16.25;93.50;100695.97;5011668;28;20241;-74
2022/06/09 00:33:49;;;;;;;5.80;4.80;;;;;;;16.28;93.56;100692.53;5029411;28;20198;-75
2022/06/09 00:36:15;;;;;;;5.37;4.93;;;;;;;16.27;93.95;100694.25;5012010;28;20182;-74
2022/06/09 00:38:41;;;;;;;7.03;5.27;;;;;;;16.29;93.40;100695.09;5029004;28;20210;-75
2022/06/09 00:41:07;;;;;;;6.27;5.07;;;;;;;16.31;93.55;100687.34;5011939;28;20202;-74
2022/06/09 00:43:33;;;;;;;5.67;4.90;;;;;;;16.31;93.46;100687.34;5029205;28;20194;-75
2022/06/09 00:46:13;;;;;;;8.43;5.40;;;;;;;16.32;93.35;100686.47;5028662;28;20238;-75
2022/06/09 00:48:54;;;;;;;5.57;5.00;;;;;;;16.31;93.66;100697.69;5011398;28;20582;-74
2022/06/09 00:51:25;;;;;;;6.27;5.63;;;;;;;16.28;94.17;100689.94;5028796;28;20189;-75
2022/06/09 00:54:00;;;;;;;6.40;5.70;;;;;;;16.30;94.26;100694.22;5028916;28;20198;-74
2022/06/09 00:56:26;;;;;;;6.27;5.33;;;;;;;16.27;94.26;100693.41;5028935;28;20198;-75
2022/06/09 00:58:54;;;;;;;6.87;5.33;;;;;;;16.24;94.28;100694.28;4994686;28;20305;-75
2022/06/09 01:01:20;;;;;;;7.20;6.20;;;;;;;16.18;94.52;100694.31;5028223;28;20182;-75
2022/06/09 01:03:52;;;;;;;7.87;5.90;;;;;;;16.14;94.91;100696.91;5029359;28;20186;-74
2022/06/09 01:06:26;;;;;;;6.63;6.00;;;;;;;16.13;95.42;100690.91;5028722;28;20206;-74
2022/06/09 01:09:02;;;;;;;6.93;5.80;;;;;;;16.15;95.00;100691.75;5029477;28;20206;-75
2022/06/09 01:11:27;;;;;;;6.40;5.80;;;;;;;16.14;94.95;100686.56;5029089;28;20248;-75
2022/06/09 01:13:57;;;;;;;6.13;5.50;;;;;;;16.15;94.61;100685.69;5028913;28;20190;-75
2022/06/09 01:16:43;;;;;;;7.10;5.70;;;;;;;16.15;94.75;100694.31;5029349;28;20182;-74
2022/06/09 01:19:30;;;;;;;7.23;6.37;;;;;;;16.09;95.02;100694.38;5028618;28;20206;-75
2022/06/09 01:22:14;;;;;;;7.07;6.20;;;;;;;16.07;95.60;100701.25;5011757;28;20182;-74
2022/06/09 01:24:49;;;;;;;8.00;6.33;;;;;;;16.10;94.93;100692.63;5028995;28;20198;-74
2022/06/09 01:27:25;;;;;;;7.47;5.57;;;;;;;16.09;94.88;100688.31;5029035;28;20204;-75
2022/06/09 01:30:04;;;;;;;9.53;6.60;;;;;;;16.04;95.33;100685.78;5011101;28;20209;-74
2022/06/09 01:32:35;;;;;;;6.40;5.60;;;;;;;16.05;95.33;100694.38;5029262;28;20284;-74
2022/06/09 01:35:17;;;;;;;6.63;5.50;;;;;;;16.02;95.54;100695.25;5028601;28;20179;-74
2022/06/09 01:37:51;;;;;;;8.70;6.57;;;;;;;16.01;95.63;100696.13;5029027;28;20257;-74
2022/06/09 01:40:18;;;;;;;8.07;5.50;;;;;;;16.00;95.51;100696.13;5010669;28;20570;-74
2022/06/09 01:42:50;;;;;;;6.37;5.17;;;;;;;16.00;95.38;100693.53;5028375;28;20195;-74
2022/06/09 01:45:20;;;;;;;7.00;5.33;;;;;;;15.98;95.68;100698.72;5028858;28;20260;-74
2022/06/09 01:48:05;;;;;;;6.03;5.40;;;;;;;15.91;95.57;100694.47;5028646;28;20656;-75
2022/06/09 01:50:43;;;;;;;7.97;5.43;;;;;;;15.88;95.77;100691.88;5028504;28;20294;-74
2022/06/09 01:53:13;;;;;;;6.73;6.03;;;;;;;15.88;95.63;100691.03;5028697;28;20912;-74
2022/06/09 01:55:44;;;;;;;8.37;6.17;;;;;;;15.84;95.28;100684.16;5013668;28;20210;-74
2022/06/09 01:58:15;;;;;;;8.23;6.10;;;;;;;15.78;96.23;100685.03;5028063;28;20244;-74
2022/06/09 02:00:41;;;;;;;7.87;6.57;;;;;;;15.73;96.44;100684.19;5011180;28;20201;-74
2022/06/09 02:03:13;;;;;;;7.47;6.37;;;;;;;15.67;96.73;100684.25;5008924;28;20191;-74
2022/06/09 02:05:45;;;;;;;8.30;6.83;;;;;;;15.64;96.57;100689.41;5026741;28;20198;-74
2022/06/09 02:08:15;;;;;;;7.27;6.20;;;;;;;15.61;96.10;100686.81;5027917;28;20293;-74
2022/06/09 02:10:46;;;;;;;8.03;6.27;;;;;;;15.59;96.34;100683.41;5028537;28;20183;-74
2022/06/09 02:13:18;;;;;;;9.53;6.60;;;;;;;15.58;96.02;100693.72;5029387;28;20191;-74
2022/06/09 02:15:50;;;;;;;8.50;6.27;;;;;;;15.54;96.09;100686.84;5032130;28;20198;-75
2022/06/09 02:18:24;;;;;;;7.57;5.27;;;;;;;15.49;95.54;100683.44;5014252;28;20194;-74
2022/06/09 02:20:58;;;;;;;8.50;5.63;;;;;;;15.48;95.83;100684.28;4997596;28;20573;-75
2022/06/09 02:23:24;;;;;;;10.67;6.07;;;;;;;15.46;95.57;100697.19;5031966;28;20174;-75
2022/06/09 02:25:50;;;;;;;6.60;5.80;;;;;;;15.44;95.50;100695.50;5031548;28;20742;-74
2022/06/09 02:28:16;;;;;;;8.30;6.67;;;;;;;15.41;95.58;100711.84;5031809;28;20186;-75
2022/06/09 02:30:42;;;;;;;7.30;6.27;;;;;;;15.40;95.67;100707.56;4997217;28;20668;-75
2022/06/09 02:33:08;;;;;;;8.40;6.87;;;;;;;15.40;95.80;100711.84;5014058;28;20309;-74
2022/06/09 02:35:33;;;;;;;8.63;6.77;;;;;;;15.36;96.27;100715.28;5031224;28;20171;-75
2022/06/09 02:38:02;;;;;;;7.43;6.33;;;;;;;15.36;96.29;100717.88;5031718;28;20194;-74
2022/06/09 02:40:29;;;;;;;8.43;6.50;;;;;;;15.31;96.41;100719.56;5031387;28;20252;-74
2022/06/09 02:42:55;;;;;;;7.20;6.50;;;;;;;15.31;95.94;100714.41;5030751;28;20199;-75
2022/06/09 02:45:21;;;;;;;6.57;5.87;;;;;;;15.29;96.18;100719.56;5013783;28;20229;-75
2022/06/09 02:47:47;;;;;;;6.93;6.23;;;;;;;15.28;95.84;100727.31;5030769;28;20704;-74
2022/06/09 02:50:13;;;;;;;6.63;5.83;;;;;;;15.24;95.96;100729.03;5031144;28;20209;-74
2022/06/09 02:52:41;;;;;;;6.70;6.00;;;;;;;15.22;95.91;100728.19;5030721;28;20190;-74
2022/06/09 02:55:08;;;;;;;6.83;6.10;;;;;;;15.23;96.27;100726.44;5031324;28;20190;-75
2022/06/09 02:57:33;;;;;;;8.40;6.70;;;;;;;15.21;96.36;100721.31;5013278;28;20194;-74
2022/06/09 02:59:59;;;;;;;8.40;6.63;;;;;;;15.22;96.34;100729.91;5030864;28;20218;-74
2022/06/09 03:02:24;;;;;;;6.83;6.13;;;;;;;15.22;96.01;100727.31;5031411;28;20225;-74
2022/06/09 03:04:50;;;;;;;10.60;6.43;;;;;;;15.21;96.55;100738.50;5031278;28;20178;-75
2022/06/09 03:07:15;;;;;;;8.10;6.83;;;;;;;15.17;96.40;100736.78;5031334;28;20210;-75
2022/06/09 03:09:41;;;;;;;8.93;6.80;;;;;;;15.19;96.18;100743.66;5030515;28;20301;-75
2022/06/09 03:12:09;;;;;;;7.27;6.50;;;;;;;15.19;96.29;100743.66;5013443;28;20202;-74
2022/06/09 03:14:35;;;;;;;9.30;6.93;;;;;;;15.22;96.48;100740.22;4996694;28;20217;-75
2022/06/09 03:17:01;;;;;;;7.77;7.07;;;;;;;15.21;96.34;100743.66;5013328;28;20672;-74
2022/06/09 03:19:27;;;;;;;8.10;7.27;;;;;;;15.25;95.91;100745.38;5030735;28;20202;-75
2022/06/09 03:21:53;;;;;;;8.73;7.83;;;;;;;15.26;95.85;100750.53;5012146;28;20193;-75
2022/06/09 03:24:19;;;;;;;8.17;7.33;;;;;;;15.23;96.39;100739.34;5012706;28;20178;-75
2022/06/09 03:26:44;;;;;;;8.70;7.80;;;;;;;15.20;96.39;100741.94;5030263;28;20206;-74
2022/06/09 03:29:10;;;;;;;11.03;9.00;;;;;;;15.10;96.82;100747.97;5030762;28;20214;-74
2022/06/09 03:31:36;;;;;;;10.70;8.53;;;;;;;15.13;97.25;100753.13;5030038;28;20194;-74
2022/06/09 03:34:02;;;;;;;10.53;8.73;;;;;;;15.13;96.75;100746.25;4996651;28;20190;-75
2022/06/09 03:36:31;;;;;;;11.13;9.87;;;;;;;15.10;96.95;100748.81;5012326;28;20535;-74
2022/06/09 03:38:57;;;;;;;10.23;9.10;;;;;;;15.09;97.35;100747.09;5030086;28;20275;-75
2022/06/09 03:41:22;;;;;;;11.60;9.40;;;;;;;15.11;97.04;100752.28;5029853;28;20221;-74
2022/06/09 03:43:48;;;;;;;11.97;9.37;;;;;;;15.09;96.69;100744.53;5029883;28;20182;-74
2022/06/09 03:46:13;;;;;;;10.73;9.63;;;;;;;15.03;97.42;100744.53;5030343;28;20198;-74
2022/06/09 03:48:39;;;;;;;10.57;9.47;;;;;;;14.98;97.13;100755.72;5029453;28;20263;-74
2022/06/09 03:51:05;;;;;;;10.70;9.70;;;;;;;15.00;97.15;100753.97;5030031;28;20311;-74
2022/06/09 03:53:31;;;;;;;10.20;9.20;;;;;;;14.98;97.52;100745.41;5012201;28;20656;-74
2022/06/09 03:55:57;;;;;;;10.60;9.50;;;;;;;14.99;96.99;100754.84;5029842;28;20325;-75
2022/06/09 03:58:23;;;;;;;11.73;9.70;;;;;;;14.96;96.90;100754.88;5030217;28;20740;-74
2022/06/09 04:00:48;;;;;;;9.80;8.83;;;;;;;14.98;96.62;100764.31;5029699;28;20263;-74
2022/06/09 04:03:14;;;;;;;10.20;9.10;;;;;;;15.00;97.01;100766.88;5030325;28;20237;-74
2022/06/09 04:05:39;;;;;;;11.23;9.67;;;;;;;14.97;96.82;100767.72;5025700;28;20218;-74
2022/06/09 04:08:06;;;;;;;12.57;9.47;;;;;;;14.94;96.75;100777.19;5012709;28;20193;-74
2022/06/09 04:10:33;;;;;;;12.87;10.73;;;;;;;14.87;97.23;100768.59;5011096;28;20205;-74
2022/06/09 04:12:59;;;;;;;10.30;9.30;;;;;;;14.91;97.02;100770.31;5012059;28;20917;-75
2022/06/09 04:15:25;;;;;;;11.30;10.00;;;;;;;14.93;97.03;100767.75;5030145;28;20715;-74
2022/06/09 04:17:54;;;;;;;11.30;10.10;;;;;;;14.98;96.74;100777.22;5011590;28;20217;-74
2022/06/09 04:20:22;;;;;;;11.00;10.00;;;;;;;15.02;96.81;100775.50;5029287;28;20205;-74
2022/06/09 04:22:47;;;;;;;13.53;10.43;;;;;;;15.05;96.63;100781.50;5029423;28;20218;-74
2022/06/09 04:25:13;;;;;;;11.57;10.37;;;;;;;15.03;96.54;100779.78;5011921;28;20292;-74
2022/06/09 04:27:39;;;;;;;11.33;9.83;;;;;;;15.04;96.70;100782.38;5029211;28;20193;-74
2022/06/09 04:30:06;;;;;;;11.70;10.40;;;;;;;15.06;96.87;100778.06;5029687;28;20584;-74
2022/06/09 04:32:32;;;;;;;12.77;10.33;;;;;;;15.10;96.65;100774.63;5011299;28;20300;-74
2022/06/09 04:34:57;;;;;;;11.10;9.70;;;;;;;15.16;96.68;100773.75;5011545;28;20796;-75
2022/06/09 04:37:59;;;;;;;11.57;10.37;;;;;;;15.19;96.24;100776.34;5029260;28;20178;-74
2022/06/09 04:40:09;;;;;;;12.90;10.67;;;;;;;15.20;96.04;100784.06;5028804;28;20213;-74
2022/06/09 04:42:35;;;;;;;14.87;12.10;;;;;;;15.24;96.36;100784.94;5029383;28;20222;-74
2022/06/09 04:45:00;;;;;;;14.67;11.63;;;;;;;15.28;96.76;100787.50;5028930;28;20271;-75
2022/06/09 04:47:25;;;;;;;12.97;11.50;;;;;;;15.30;96.65;100790.97;5011714;28;20203;-74
2022/06/09 04:49:51;;;;;;;13.83;12.43;;;;;;;15.36;96.68;100784.97;5011142;28;20304;-74
2022/06/09 04:52:16;;;;;;;14.23;12.73;;;;;;;15.34;96.66;100782.38;5029476;28;20189;-74
2022/06/09 04:54:42;;;;;;;17.10;13.60;;;;;;;15.40;96.78;100789.25;5029298;28;20723;-74
2022/06/09 04:57:07;;;;;;;16.40;14.07;;;;;;;15.40;97.03;100797.00;5028771;28;20569;-74
2022/06/09 04:59:33;;;;;;;15.13;13.17;;;;;;;15.43;96.68;100795.25;5028281;28;20700;-74
2022/06/09 05:01:58;;;;;;;15.33;13.73;;;;;;;15.48;96.50;100792.69;5028917;28;20205;-74
2022/06/09 05:04:23;;;;;;;14.27;12.77;;;;;;;15.51;96.54;100795.28;5011921;28;20186;-74
2022/06/09 05:06:49;;;;;;;15.63;13.63;;;;;;;15.50;96.97;100798.69;5028583;28;20210;-74
2022/06/09 05:09:15;;;;;;;15.17;13.13;;;;;;;15.49;96.52;100797.88;5026719;28;20571;-74
2022/06/09 05:11:41;;;;;;;16.30;13.97;;;;;;;15.49;97.02;100797.00;5010879;28;20261;-74
2022/06/09 05:14:07;;;;;;;20.47;14.93;;;;;;;15.51;96.79;100800.44;5029137;28;20195;-74
2022/06/09 05:16:32;;;;;;;17.27;14.10;;;;;;;15.58;96.28;100807.31;5011433;28;20192;-74
2022/06/09 05:18:58;;;;;;;16.50;14.63;;;;;;;15.56;96.56;100807.31;5027651;28;20214;-75
2022/06/09 05:21:23;;;;;;;18.67;16.07;;;;;;;15.57;96.55;100815.91;5011324;28;20194;-74
2022/06/09 05:23:48;;;;;;;16.13;14.43;;;;;;;15.62;96.28;100809.03;5010923;28;20213;-75
2022/06/09 05:26:15;;;;;;;17.20;15.40;;;;;;;15.62;96.71;100816.75;5028879;28;20221;-74
2022/06/09 05:28:41;;;;;;;18.40;15.70;;;;;;;15.62;96.36;100809.03;5010226;28;20210;-74
2022/06/09 05:31:06;;;;;;;18.60;15.43;;;;;;;15.67;96.49;100812.44;5028894;28;20563;-74
2022/06/09 05:33:31;;;;;;;20.03;16.73;;;;;;;15.70;96.65;100815.03;5011569;28;20449;-74
2022/06/09 05:35:58;;;;;;;20.17;16.03;;;;;;;15.76;96.60;100823.63;5011068;28;20656;-74
2022/06/09 05:46:38;;;;;;;21.93;18.73;;;;;;;15.92;96.48;100845.97;5011263;28;20218;-74
2022/06/09 05:49:04;;;;;;;29.13;19.83;;;;;;;15.98;96.06;100845.09;5031709;28;20260;-74
2022/06/09 05:51:31;;;;;;;23.07;20.23;;;;;;;15.96;95.93;100844.22;5014371;28;20542;-74
2022/06/09 05:53:56;;;;;;;27.40;20.93;;;;;;;16.02;95.86;100846.81;5032450;28;20210;-74
2022/06/09 05:56:23;;;;;;;31.27;22.63;;;;;;;16.05;96.33;100845.09;5031927;28;20858;-74
2022/06/09 05:58:48;;;;;;;27.07;21.73;;;;;;;16.11;95.98;100850.22;5031499;28;20206;-74
2022/06/09 06:01:14;;;;;;;23.33;20.43;;;;;;;16.16;95.64;100851.06;5014750;28;20670;-74
2022/06/09 06:03:41;;;;;;;27.80;22.43;;;;;;;16.18;95.56;100854.53;5031964;28;20190;-74
2022/06/09 06:08:50;;;;;;;28.20;22.07;;;;;;;16.22;95.13;100871.75;5029111;28;20202;-74
2022/06/09 06:11:16;;;;;;;29.60;22.43;;;;;;;16.23;95.03;100873.44;5014433;28;20674;-74
2022/06/09 06:13:43;;;;;;;36.30;23.17;;;;;;;16.32;95.09;100880.31;5031738;28;20636;-74
2022/06/09 06:16:09;;;;;;;28.17;23.27;;;;;;;16.33;94.56;100888.06;5032231;28;20220;-74
2022/06/09 06:18:34;;;;;;;27.73;21.83;;;;;;;16.54;94.61;100876.81;5013679;28;20214;-74
2022/06/09 06:21:00;;;;;;;25.07;21.33;;;;;;;16.61;92.88;100881.94;5031667;28;20236;-75
2022/06/09 06:23:26;;;;;;;25.73;20.33;;;;;;;16.77;91.51;100886.16;5014506;28;20256;-75
2022/06/09 06:25:53;;;;;;;25.57;20.17;;;;;;;16.86;90.39;100890.44;5042136;28;20231;-75
2022/06/09 06:28:20;;;;;;;21.07;18.07;;;;;;;17.00;89.50;100897.25;5031154;28;20218;-74
2022/06/09 06:30:46;;;;;;;21.83;16.80;;;;;;;17.04;88.14;100896.38;5029025;28;20661;-75
2022/06/09 06:33:11;;;;;;;22.93;17.67;;;;;;;17.02;88.19;100900.72;5013014;28;20194;-75
2022/06/09 06:35:37;;;;;;;21.67;16.90;;;;;;;17.01;88.66;100908.47;5031287;28;20186;-75
2022/06/09 06:38:03;;;;;;;24.27;18.70;;;;;;;16.80;87.92;100901.69;5031750;28;20197;-74
2022/06/09 06:40:28;;;;;;;21.43;17.10;;;;;;;16.83;88.58;100911.16;4997476;28;20216;-74
2022/06/09 06:42:54;;;;;;;20.17;16.27;;;;;;;16.81;88.44;100915.50;5012981;28;20191;-75
2022/06/09 06:45:19;;;;;;;22.37;17.70;;;;;;;16.76;89.15;100917.25;5031501;28;20681;-75
2022/06/09 06:47:45;;;;;;;25.23;18.43;;;;;;;16.70;88.93;100925.88;5031424;28;20530;-74
2022/06/09 06:50:12;;;;;;;24.50;17.73;;;;;;;16.76;89.66;100930.16;5031436;28;20225;-75
2022/06/09 06:52:38;;;;;;;21.60;17.17;;;;;;;16.76;90.14;100935.34;5031213;28;20190;-75
2022/06/09 06:55:04;;;;;;;25.30;18.03;;;;;;;16.73;90.06;100945.69;4997586;28;20726;-74
2022/06/09 06:57:30;;;;;;;21.70;16.23;;;;;;;16.70;88.86;100951.75;5031301;28;20198;-74
2022/06/09 06:59:55;;;;;;;22.73;16.80;;;;;;;16.67;88.60;100946.56;5012218;28;20206;-75
2022/06/09 07:02:21;;;;;;;20.90;15.50;;;;;;;16.66;88.71;100954.31;5031103;28;20831;-74
2022/06/09 07:04:46;;;;;;;20.80;16.20;;;;;;;16.60;88.14;100957.81;5012930;28;20678;-74
2022/06/09 07:07:12;;;;;;;17.87;15.80;;;;;;;16.59;87.78;100953.50;5030771;28;20296;-75
2022/06/09 07:09:38;;;;;;;20.20;15.70;;;;;;;16.59;87.89;100955.22;5012462;28;20198;-75
2022/06/09 07:12:04;;;;;;;21.40;15.67;;;;;;;16.64;88.05;100963.81;5013503;28;20222;-75
2022/06/09 07:14:30;;;;;;;19.37;14.47;;;;;;;16.57;87.11;100956.97;5030956;28;20218;-75
2022/06/09 07:16:55;;;;;;;16.90;13.60;;;;;;;16.58;87.03;100967.28;5012944;28;20213;-75
2022/06/09 07:19:21;;;;;;;16.10;13.17;;;;;;;16.65;86.56;100965.53;5030861;28;20352;-75
2022/06/09 07:21:47;;;;;;;18.23;13.70;;;;;;;16.67;86.58;100972.41;5030139;28;20182;-74
2022/06/09 07:24:13;;;;;;;18.50;13.20;;;;;;;16.70;85.83;100972.44;5013252;28;20187;-75
2022/06/09 07:26:38;;;;;;;14.50;12.73;;;;;;;16.78;85.74;100977.56;5030359;28;20283;-75
2022/06/09 07:29:04;;;;;;;16.13;11.53;;;;;;;16.79;85.99;100979.28;5030261;28;20699;-74
2022/06/09 07:31:29;;;;;;;13.57;11.37;;;;;;;16.90;85.68;100991.31;5030189;28;20278;-75
2022/06/09 07:33:55;;;;;;;17.13;12.60;;;;;;;16.93;85.45;100987.84;5030955;28;20244;-74
2022/06/09 07:36:23;;;;;;;17.23;11.30;;;;;;;16.92;84.33;100988.72;5030610;28;20193;-74
2022/06/09 07:38:49;;;;;;;16.20;11.60;;;;;;;17.12;84.56;100981.72;5012070;28;20210;-74
2022/06/09 07:41:15;;;;;;;16.50;11.10;;;;;;;17.27;83.96;100987.69;4996653;28;20225;-74
2022/06/09 07:43:41;;;;;;;14.97;10.73;;;;;;;17.56;82.57;100995.31;5011655;28;20190;-75
2022/06/09 07:46:06;;;;;;;13.13;9.70;;;;;;;17.89;81.94;100989.88;5030346;28;20288;-75
2022/06/09 07:48:32;;;;;;;15.13;10.63;;;;;;;17.97;80.53;100995.88;5029579;28;20190;-75
2022/06/09 07:50:57;;;;;;;11.97;9.50;;;;;;;17.94;80.72;100999.34;5012682;28;20209;-75
2022/06/09 07:53:23;;;;;;;15.10;9.70;;;;;;;18.17;79.85;101002.63;5030399;28;20179;-75
2022/06/09 07:55:50;;;;;;;13.43;9.33;;;;;;;18.36;79.36;101001.59;5030271;28;20175;-75
2022/06/09 07:58:17;;;;;;;11.80;9.67;;;;;;;18.52;78.36;101007.50;5030567;28;20547;-75
2022/06/09 08:00:43;;;;;;;14.83;9.03;;;;;;;18.42;78.02;101006.72;5030025;28;20241;-76
2022/06/09 08:03:14;;;;;;;12.60;8.90;;;;;;;18.21;78.95;101001.72;5030640;28;20233;-76
2022/06/09 08:05:40;;;;;;;11.43;7.67;;;;;;;18.01;79.07;101016.56;5029815;28;20194;-76
2022/06/09 08:08:06;;;;;;;10.33;7.57;;;;;;;17.75;78.64;101013.31;5012805;28;20301;-76
2022/06/09 08:10:32;;;;;;;10.20;7.60;;;;;;;17.73;79.05;101024.56;5011269;28;20704;-75
2022/06/09 08:13:00;;;;;;;11.47;7.43;;;;;;;17.85;79.26;101020.16;5029520;28;20221;-76
2022/06/09 08:15:27;;;;;;;9.07;7.10;;;;;;;17.81;80.17;101022.75;5005176;28;20202;-76
2022/06/09 08:17:53;;;;;;;11.70;8.67;;;;;;;17.88;80.86;101027.91;5029817;28;20194;-74
2022/06/09 08:20:19;;;;;;;16.63;10.30;;;;;;;17.67;80.96;101032.34;5029371;28;20241;-74
2022/06/09 08:22:45;;;;;;;16.83;10.67;;;;;;;17.56;81.39;101041.94;5029060;28;20194;-75
2022/06/09 08:25:14;;;;;;;15.63;10.67;;;;;;;17.78;80.33;101041.78;5029960;28;20260;-75
2022/06/09 08:27:39;;;;;;;15.30;10.40;;;;;;;17.98;80.15;101039.06;5029136;28;20198;-75
2022/06/09 08:30:06;;;;;;;17.83;10.13;;;;;;;18.02;79.37;101044.22;5029084;28;20220;-75
2022/06/09 08:32:32;;;;;;;12.57;9.73;;;;;;;18.18;78.72;101044.94;5029604;28;20225;-75
2022/06/09 08:34:58;;;;;;;11.93;9.20;;;;;;;18.44;77.57;101043.03;5028031;28;20222;-74
2022/06/09 08:37:23;;;;;;;12.20;8.77;;;;;;;18.58;77.18;101049.81;5000386;28;20186;-76
2022/06/09 08:39:49;;;;;;;12.13;8.90;;;;;;;18.67;77.35;101044.53;4993635;28;20244;-76
2022/06/09 08:42:23;;;;;;;11.93;8.87;;;;;;;18.66;77.21;101057.50;4982300;28;20565;-76
2022/06/09 08:44:57;;;;;;;12.77;9.50;;;;;;;18.40;77.91;101059.47;4991407;28;20242;-75
2022/06/09 08:47:22;;;;;;;13.93;9.53;;;;;;;18.60;77.63;101070.56;5009084;28;20203;-75
2022/06/09 08:49:55;;;;;;;14.47;9.43;;;;;;;18.57;76.76;101073.16;4990033;28;20210;-75
2022/06/09 08:52:39;;;;;;;9.73;8.47;;;;;;;18.71;76.39;101077.34;5009240;28;20179;-75
2022/06/09 08:55:22;;;;;;;10.40;7.70;;;;;;;18.78;74.47;101078.13;4975124;28;20294;-75
2022/06/09 08:57:50;;;;;;;9.77;8.00;;;;;;;18.82;73.73;101069.44;5009246;28;20205;-75
2022/06/09 09:00:24;;;;;;;10.57;7.10;;;;;;;19.19;73.75;101068.16;5008346;28;20206;-75
2022/06/09 09:02:55;;;;;;;12.17;6.87;;;;;;;19.39;72.46;101071.41;4990993;28;20237;-75
2022/06/09 09:05:31;;;;;;;10.30;6.63;;;;;;;19.56;70.99;101072.91;5009070;28;20233;-75
2022/06/09 09:08:00;;;;;;;8.57;5.63;;;;;;;19.81;69.05;101073.41;5008720;28;20194;-75
2022/06/09 09:10:38;;;;;;;6.47;5.13;;;;;;;19.96;69.10;101083.59;5007812;28;20283;-76
2022/06/09 09:13:24;;;;;;;8.27;5.20;;;;;;;20.04;68.43;101092.13;5008779;28;20199;-76
2022/06/09 09:16:03;;;;;;;9.90;5.87;;;;;;;20.18;68.17;101080.66;5009601;28;20182;-75
2022/06/09 09:18:37;;;;;;;8.97;5.77;;;;;;;20.23;67.85;101094.44;5019773;28;20230;-75
2022/06/09 09:21:18;;;;;;;7.80;4.93;;;;;;;20.42;67.73;101082.88;5038488;28;20246;-76
2022/06/09 09:24:23;;;;;;;7.43;4.83;;;;;;;20.77;66.20;101092.69;5001944;28;20174;-78
2022/06/09 09:26:57;;;;;;;9.83;4.80;;;;;;;20.87;66.73;101095.06;5012046;28;20214;-77
2022/06/09 09:29:29;;;;;;;7.73;4.67;;;;;;;20.85;64.95;101093.38;5014140;28;20213;-76
2022/06/09 09:31:59;;;;;;;9.00;4.57;;;;;;;20.71;66.66;101104.06;5021856;28;20225;-76
2022/06/09 09:34:46;;;;;;;7.60;4.60;;;;;;;20.50;66.49;101106.16;5015223;28;20202;-77
2022/06/09 09:37:17;;;;;;;6.73;4.27;;;;;;;20.10;67.59;101110.28;5039125;28;20178;-78
2022/06/09 09:39:48;;;;;;;6.97;5.07;;;;;;;19.84;68.07;101117.56;5026625;28;20209;-76
2022/06/09 09:42:18;;;;;;;7.53;4.70;;;;;;;20.41;67.44;101120.16;5034631;28;20264;-77
2022/06/09 09:45:10;;;;;;;6.90;4.77;;;;;;;20.43;66.10;101120.16;5053166;28;20189;-76
2022/06/09 09:47:55;;;;;;;6.67;4.47;;;;;;;20.60;65.79;101124.19;5034459;28;20671;-76
2022/06/09 09:50:29;;;;;;;7.57;5.07;;;;;;;20.90;64.33;101123.69;5052400;28;20809;-78
2022/06/09 09:53:18;;;;;;;8.47;5.10;;;;;;;20.79;65.13;101122.13;5019339;28;20189;-77
2022/06/09 09:56:05;;;;;;;6.83;4.87;;;;;;;20.29;66.66;101133.38;5013454;28;20193;-77
2022/06/09 09:58:57;;;;;;;7.40;5.03;;;;;;;20.76;65.68;101135.19;5034623;28;20213;-77
2022/06/09 10:01:23;;;;;;;7.97;5.60;;;;;;;21.43;63.70;101138.31;5034609;28;20182;-77
2022/06/09 10:09:44;;;;;;;5.70;4.70;;;;;;;22.30;60.67;101142.44;5051603;28;20205;-77
2022/06/09 10:12:16;;;;;;;5.57;3.70;;;;;;;22.56;59.08;101139.25;5022383;28;20567;-76
2022/06/09 10:14:47;;;;;;;6.53;3.90;;;;;;;22.47;58.83;101152.53;5015188;28;20186;-78
2022/06/09 10:17:35;;;;;;;4.87;3.93;;;;;;;21.69;61.08;101156.91;5032600;28;20182;-77
2022/06/09 10:20:22;;;;;;;5.13;3.43;;;;;;;21.98;61.38;101172.78;5031931;28;20728;-76
2022/06/09 10:23:06;;;;;;;5.73;4.07;;;;;;;21.77;60.97;101168.03;4998253;28;20233;-76
2022/06/09 10:25:42;;;;;;;8.43;4.53;;;;;;;21.84;61.48;101173.06;5012766;28;20179;-76
2022/06/09 10:28:16;;;;;;;5.53;4.87;;;;;;;22.21;60.07;101162.72;5014513;28;20186;-76
2022/06/09 10:30:59;;;;;;;6.03;4.43;;;;;;;22.18;59.64;101166.25;5031484;28;20194;-76
2022/06/09 10:33:36;;;;;;;6.00;4.00;;;;;;;22.42;59.66;101170.88;5012233;28;20273;-76
2022/06/09 10:36:20;;;;;;;6.83;4.57;;;;;;;22.31;59.36;101166.81;5032708;28;20186;-76
2022/06/09 10:38:56;;;;;;;4.93;3.80;;;;;;;23.16;58.42;101171.63;5032467;28;20264;-76
2022/06/09 10:41:43;;;;;;;4.70;3.67;;;;;;;22.71;58.32;101165.00;5031794;28;20178;-76
2022/06/09 10:44:26;;;;;;;6.53;4.37;;;;;;;22.94;57.00;101169.63;4994350;28;20187;-76
2022/06/09 10:56:46;;;;;;;5.72;4.32;;;;;;;23.64;55.12;101170.31;4954538;28;20196;-76
2022/06/09 10:59:33;;;;;;;6.00;3.90;;;;;;;24.33;54.84;101176.09;4988096;28;20295;-75
2022/06/09 11:01:59;;;;;;;4.65;3.72;;;;;;;24.60;53.51;101174.38;5033625;28;20201;-75
2022/06/09 11:04:30;;;;;;;5.50;4.38;;;;;;;24.43;53.16;101177.50;5024731;28;20289;-76
2022/06/09 11:07:13;;;;;;;4.88;4.38;;;;;;;23.24;55.69;101189.78;5039571;28;20322;-75
2022/06/09 11:10:01;;;;;;;4.93;3.67;;;;;;;24.50;51.99;101196.50;5012830;28;20265;-75
2022/06/09 11:12:52;;;;;;;4.68;4.22;;;;;;;23.89;52.34;101192.25;5031566;28;20225;-75
2022/06/09 11:15:49;;;;;;;4.30;3.90;;;;;;;23.63;54.15;101197.38;5024786;28;20742;-75
2022/06/09 11:18:39;;;;;;;5.37;4.00;;;;;;;23.74;53.25;101194.44;5040717;28;20186;-75
2022/06/09 11:21:36;;;;;;;6.22;4.40;;;;;;;24.46;51.83;101203.63;5033316;28;20246;-76
2022/06/09 11:24:39;;;;;;;5.80;4.32;;;;;;;24.24;51.99;101199.06;5030848;28;20529;-75
2022/06/09 11:27:40;;;;;;;7.00;5.13;;;;;;;24.38;52.01;101202.13;5016642;28;20217;-75
2022/06/09 11:30:18;;;;;;;6.70;4.80;;;;;;;23.83;52.45;101213.38;4993585;28;20692;-76
2022/06/09 11:33:10;;;;;;;5.57;3.72;;;;;;;23.99;53.18;101203.34;4996817;28;20666;-76
2022/06/09 11:35:38;;;;;;;7.50;4.00;;;;;;;24.75;51.80;101211.41;5012133;28;20195;-76
2022/06/09 11:38:07;;;;;;;4.50;4.10;;;;;;;24.37;50.78;101214.38;5030266;28;20201;-76
2022/06/09 11:40:41;;;;;;;5.05;4.00;;;;;;;24.61;50.21;101218.00;5012189;28;20206;-76
2022/06/09 11:43:22;;;;;;;3.70;3.40;;;;;;;25.08;49.13;101215.53;5030771;28;20188;-75
2022/06/09 11:46:00;;;;;;;5.22;3.22;;;;;;;25.20;49.36;101211.63;5012208;28;20202;-76
2022/06/09 11:48:35;;;;;;;6.07;3.58;;;;;;;24.97;50.41;101214.19;5030205;28;20218;-75
2022/06/09 11:51:02;;;;;;;6.18;4.45;;;;;;;24.03;52.80;101224.13;5030067;28;20186;-74
2022/06/09 11:53:31;;;;;;;4.90;4.30;;;;;;;24.12;52.29;101230.88;5013048;28;20648;-75
2022/06/09 11:56:34;;;;;;;5.82;4.13;;;;;;;24.47;51.46;101230.63;5030209;28;20905;-75
2022/06/09 11:59:14;;;;;;;7.07;4.40;;;;;;;24.93;50.24;101230.91;4998936;28;20283;-75
2022/06/09 12:01:43;;;;;;;4.13;3.60;;;;;;;24.88;49.83;101236.31;5011597;28;20195;-74